sensor_id;sensor_type;location;lat;lon;timestamp;pressure;altitude;pressure_sealevel;temperature;humidity
7730;BME280;3908;52.310;7.230;2024-02-04T00:00:58;51759.34;;;-145.83;100.00
7730;BME280;3908;52.310;7.230;2024-02-04T00:03:46;51755.44;;;-145.83;100.00
7730;BME280;3908;52.310;7.230;2024-02-04T00:06:33;51780.88;;;-145.83;100.00
7730;BME280;3908;52.310;7.230;2024-02-04T00:09:20;51780.88;;;-145.83;100.00
7730;BME280;3908;52.310;7.230;2024-02-04T00:12:08;51753.47;;;-145.83;100.00
7730;BME280;3908;52.310;7.230;2024-02-04T00:14:57;51810.22;;;-145.83;100.00
7730;BME280;3908;52.310;7.230;2024-02-04T00:17:44;51741.75;;;-145.83;100.00
7730;BME280;3908;52.310;7.230;2024-02-04T00:20:32;51753.47;;;-145.83;100.00
7730;BME280;3908;52.310;7.230;2024-02-04T00:23:19;51810.22;;;-145.83;100.00
7730;BME280;3908;52.310;7.230;2024-02-04T00:26:07;51776.94;;;-145.83;100.00
7730;BME280;3908;52.310;7.230;2024-02-04T00:28:56;51757.38;;;-145.83;100.00
7730;BME280;3908;52.310;7.230;2024-02-04T00:31:47;51759.34;;;-145.83;100.00
7730;BME280;3908;52.310;7.230;2024-02-04T00:34:34;51751.53;;;-145.83;100.00
7730;BME280;3908;52.310;7.230;2024-02-04T00:37:21;51730.00;;;-145.83;100.00
7730;BME280;3908;52.310;7.230;2024-02-04T00:40:10;51763.25;;;-145.83;100.00
7730;BME280;3908;52.310;7.230;2024-02-04T00:42:57;51775.00;;;-145.83;100.00
7730;BME280;3908;52.310;7.230;2024-02-04T00:45:44;51773.03;;;-145.83;100.00
7730;BME280;3908;52.310;7.230;2024-02-04T00:48:33;51753.47;;;-145.83;100.00
7730;BME280;3908;52.310;7.230;2024-02-04T00:51:20;51802.38;;;-145.83;100.00
7730;BME280;3908;52.310;7.230;2024-02-04T00:54:07;51741.75;;;-145.83;100.00
7730;BME280;3908;52.310;7.230;2024-02-04T00:56:54;51745.66;;;-145.83;100.00
7730;BME280;3908;52.310;7.230;2024-02-04T00:59:43;51767.16;;;-145.83;100.00
7730;BME280;3908;52.310;7.230;2024-02-04T01:02:30;51751.53;;;-145.83;100.00
7730;BME280;3908;52.310;7.230;2024-02-04T01:05:19;51771.09;;;-145.83;100.00
7730;BME280;3908;52.310;7.230;2024-02-04T01:08:06;51767.16;;;-145.83;100.00
7730;BME280;3908;52.310;7.230;2024-02-04T01:10:53;51739.78;;;-145.83;100.00
7730;BME280;3908;52.310;7.230;2024-02-04T01:13:40;51761.31;;;-145.83;100.00
7730;BME280;3908;52.310;7.230;2024-02-04T01:16:27;51733.91;;;-145.83;100.00
7730;BME280;3908;52.310;7.230;2024-02-04T01:19:15;51769.13;;;-145.83;100.00
7730;BME280;3908;52.310;7.230;2024-02-04T01:22:03;51747.59;;;-145.83;100.00
7730;BME280;3908;52.310;7.230;2024-02-04T01:24:51;51778.91;;;-145.83;100.00
7730;BME280;3908;52.310;7.230;2024-02-04T01:27:42;51776.94;;;-145.83;100.00
7730;BME280;3908;52.310;7.230;2024-02-04T01:30:29;51739.78;;;-145.83;100.00
7730;BME280;3908;52.310;7.230;2024-02-04T01:33:17;51757.38;;;-145.83;100.00
7730;BME280;3908;52.310;7.230;2024-02-04T01:36:04;51775.00;;;-145.83;100.00
7730;BME280;3908;52.310;7.230;2024-02-04T01:38:56;51751.53;;;-145.83;100.00
7730;BME280;3908;52.310;7.230;2024-02-04T01:41:43;51747.59;;;-145.83;100.00
7730;BME280;3908;52.310;7.230;2024-02-04T01:44:31;51755.44;;;-145.83;100.00
7730;BME280;3908;52.310;7.230;2024-02-04T01:47:18;51759.34;;;-145.83;100.00
7730;BME280;3908;52.310;7.230;2024-02-04T01:50:06;51747.59;;;-145.83;100.00
7730;BME280;3908;52.310;7.230;2024-02-04T01:52:54;51773.03;;;-145.83;100.00
7730;BME280;3908;52.310;7.230;2024-02-04T01:55:42;51743.69;;;-145.83;100.00
7730;BME280;3908;52.310;7.230;2024-02-04T01:58:29;51759.34;;;-145.83;100.00
7730;BME280;3908;52.310;7.230;2024-02-04T02:01:16;51759.34;;;-145.83;100.00
7730;BME280;3908;52.310;7.230;2024-02-04T02:04:04;51778.91;;;-145.83;100.00
7730;BME280;3908;52.310;7.230;2024-02-04T02:06:52;51763.25;;;-145.83;100.00
7730;BME280;3908;52.310;7.230;2024-02-04T02:09:39;51765.22;;;-145.83;100.00
7730;BME280;3908;52.310;7.230;2024-02-04T02:12:34;51780.88;;;-145.83;100.00
7730;BME280;3908;52.310;7.230;2024-02-04T02:15:25;51769.13;;;-145.83;100.00
7730;BME280;3908;52.310;7.230;2024-02-04T02:18:19;51731.94;;;-145.83;100.00
7730;BME280;3908;52.310;7.230;2024-02-04T02:21:19;51735.88;;;-145.83;100.00
7730;BME280;3908;52.310;7.230;2024-02-04T02:24:16;51775.00;;;-145.83;100.00
7730;BME280;3908;52.310;7.230;2024-02-04T02:27:07;51749.56;;;-145.83;100.00
7730;BME280;3908;52.310;7.230;2024-02-04T02:29:55;51776.94;;;-145.83;100.00
7730;BME280;3908;52.310;7.230;2024-02-04T02:32:42;51761.31;;;-145.83;100.00
7730;BME280;3908;52.310;7.230;2024-02-04T02:35:30;51739.78;;;-145.83;100.00
7730;BME280;3908;52.310;7.230;2024-02-04T02:38:24;51712.38;;;-145.83;100.00
7730;BME280;3908;52.310;7.230;2024-02-04T02:41:12;51786.72;;;-145.83;100.00
7730;BME280;3908;52.310;7.230;2024-02-04T02:44:05;51749.56;;;-145.83;100.00
7730;BME280;3908;52.310;7.230;2024-02-04T02:46:52;51735.88;;;-145.83;100.00
7730;BME280;3908;52.310;7.230;2024-02-04T02:49:43;51757.38;;;-145.83;100.00
7730;BME280;3908;52.310;7.230;2024-02-04T02:52:30;51782.81;;;-145.83;100.00
7730;BME280;3908;52.310;7.230;2024-02-04T02:55:18;51794.56;;;-145.83;100.00
7730;BME280;3908;52.310;7.230;2024-02-04T02:58:05;51759.34;;;-145.83;100.00
7730;BME280;3908;52.310;7.230;2024-02-04T03:00:53;51722.16;;;-145.83;100.00
7730;BME280;3908;52.310;7.230;2024-02-04T03:03:40;51784.78;;;-145.83;100.00
7730;BME280;3908;52.310;7.230;2024-02-04T03:06:27;51728.03;;;-145.83;100.00
7730;BME280;3908;52.310;7.230;2024-02-04T03:09:14;51745.66;;;-145.83;100.00
7730;BME280;3908;52.310;7.230;2024-02-04T03:12:02;51743.69;;;-145.83;100.00
7730;BME280;3908;52.310;7.230;2024-02-04T03:14:49;51784.78;;;-145.83;99.74
7730;BME280;3908;52.310;7.230;2024-02-04T03:17:38;51763.25;;;-145.83;98.81
7730;BME280;3908;52.310;7.230;2024-02-04T03:20:25;51735.88;;;-145.83;99.19
7730;BME280;3908;52.310;7.230;2024-02-04T03:23:12;51745.66;;;-145.83;99.50
7730;BME280;3908;52.310;7.230;2024-02-04T03:25:59;51730.00;;;-145.83;99.42
7730;BME280;3908;52.310;7.230;2024-02-04T03:28:46;51761.31;;;-145.83;99.45
7730;BME280;3908;52.310;7.230;2024-02-04T03:31:33;51773.03;;;-145.83;99.92
7730;BME280;3908;52.310;7.230;2024-02-04T03:34:22;51753.47;;;-145.83;99.92
7730;BME280;3908;52.310;7.230;2024-02-04T03:37:09;51765.22;;;-145.83;99.84
7730;BME280;3908;52.310;7.230;2024-02-04T03:39:56;51780.88;;;-145.83;99.54
7730;BME280;3908;52.310;7.230;2024-02-04T03:42:43;51751.53;;;-145.83;99.03
7730;BME280;3908;52.310;7.230;2024-02-04T03:45:30;51773.03;;;-145.83;99.27
7730;BME280;3908;52.310;7.230;2024-02-04T03:48:17;51731.94;;;-145.83;99.57
7730;BME280;3908;52.310;7.230;2024-02-04T03:51:06;51731.94;;;-145.83;99.50
7730;BME280;3908;52.310;7.230;2024-02-04T03:53:53;51775.00;;;-145.83;99.06
7730;BME280;3908;52.310;7.230;2024-02-04T03:56:41;51771.09;;;-145.83;98.95
7730;BME280;3908;52.310;7.230;2024-02-04T03:59:31;51757.38;;;-145.83;99.17
7730;BME280;3908;52.310;7.230;2024-02-04T04:02:18;51747.59;;;-145.83;99.26
7730;BME280;3908;52.310;7.230;2024-02-04T04:05:06;51737.81;;;-145.83;99.09
7730;BME280;3908;52.310;7.230;2024-02-04T04:07:58;51745.66;;;-145.83;99.27
7730;BME280;3908;52.310;7.230;2024-02-04T04:10:45;51767.16;;;-145.83;99.18
7730;BME280;3908;52.310;7.230;2024-02-04T04:13:32;51755.44;;;-145.83;98.75
7730;BME280;3908;52.310;7.230;2024-02-04T04:16:20;51753.47;;;-145.83;97.23
7730;BME280;3908;52.310;7.230;2024-02-04T04:19:08;51743.69;;;-145.83;97.28
7730;BME280;3908;52.310;7.230;2024-02-04T04:21:55;51790.66;;;-145.83;96.10
7730;BME280;3908;52.310;7.230;2024-02-04T04:24:43;51759.34;;;-145.83;95.98
7730;BME280;3908;52.310;7.230;2024-02-04T04:27:30;51767.16;;;-145.83;96.24
7730;BME280;3908;52.310;7.230;2024-02-04T04:30:18;51749.56;;;-145.83;96.37
7730;BME280;3908;52.310;7.230;2024-02-04T04:33:05;51739.78;;;-145.83;97.47
7730;BME280;3908;52.310;7.230;2024-02-04T04:35:52;51778.91;;;-145.83;97.60
7730;BME280;3908;52.310;7.230;2024-02-04T04:38:39;51757.38;;;-145.83;97.49
7730;BME280;3908;52.310;7.230;2024-02-04T04:41:27;51722.16;;;-145.83;97.18
7730;BME280;3908;52.310;7.230;2024-02-04T04:44:14;51763.25;;;-145.83;96.77
7730;BME280;3908;52.310;7.230;2024-02-04T04:47:01;51757.38;;;-145.83;96.95
7730;BME280;3908;52.310;7.230;2024-02-04T04:49:48;51767.16;;;-145.83;97.45
7730;BME280;3908;52.310;7.230;2024-02-04T04:52:36;51753.47;;;-145.83;97.18
7730;BME280;3908;52.310;7.230;2024-02-04T04:55:23;51751.53;;;-145.83;96.49
7730;BME280;3908;52.310;7.230;2024-02-04T04:58:11;51745.66;;;-145.83;94.81
7730;BME280;3908;52.310;7.230;2024-02-04T05:00:58;51769.13;;;-145.83;93.38
7730;BME280;3908;52.310;7.230;2024-02-04T05:03:45;51737.81;;;-145.83;92.39
7730;BME280;3908;52.310;7.230;2024-02-04T05:06:33;51763.25;;;-145.83;92.00
7730;BME280;3908;52.310;7.230;2024-02-04T05:09:24;51735.88;;;-145.83;90.78
7730;BME280;3908;52.310;7.230;2024-02-04T05:12:11;51784.78;;;-145.83;90.23
7730;BME280;3908;52.310;7.230;2024-02-04T05:14:59;51796.53;;;-145.83;89.12
7730;BME280;3908;52.310;7.230;2024-02-04T05:17:46;51769.13;;;-145.83;88.31
7730;BME280;3908;52.310;7.230;2024-02-04T05:20:33;51747.59;;;-145.83;88.71
7730;BME280;3908;52.310;7.230;2024-02-04T05:23:20;51767.16;;;-145.83;88.93
7730;BME280;3908;52.310;7.230;2024-02-04T05:26:08;51731.94;;;-145.83;88.56
7730;BME280;3908;52.310;7.230;2024-02-04T05:28:55;51743.69;;;-145.83;89.11
7730;BME280;3908;52.310;7.230;2024-02-04T05:31:43;51745.66;;;-145.83;89.45
7730;BME280;3908;52.310;7.230;2024-02-04T05:34:30;51722.16;;;-145.83;89.04
7730;BME280;3908;52.310;7.230;2024-02-04T05:37:19;51753.47;;;-145.83;89.26
7730;BME280;3908;52.310;7.230;2024-02-04T05:40:07;51745.66;;;-145.83;89.27
7730;BME280;3908;52.310;7.230;2024-02-04T05:42:55;51696.75;;;-145.83;89.46
7730;BME280;3908;52.310;7.230;2024-02-04T05:45:42;51745.66;;;-145.83;89.57
7730;BME280;3908;52.310;7.230;2024-02-04T05:48:30;51761.31;;;-145.83;88.90
7730;BME280;3908;52.310;7.230;2024-02-04T05:51:17;51743.69;;;-145.83;88.25
7730;BME280;3908;52.310;7.230;2024-02-04T05:54:04;51745.66;;;-145.83;87.64
7730;BME280;3908;52.310;7.230;2024-02-04T05:56:51;51753.47;;;-145.83;87.31
7730;BME280;3908;52.310;7.230;2024-02-04T05:59:38;51733.91;;;-145.83;86.14
7730;BME280;3908;52.310;7.230;2024-02-04T06:02:26;51759.34;;;-145.83;85.83
7730;BME280;3908;52.310;7.230;2024-02-04T06:05:14;51720.22;;;-145.83;86.65
7730;BME280;3908;52.310;7.230;2024-02-04T06:08:01;51755.44;;;-145.83;85.99
7730;BME280;3908;52.310;7.230;2024-02-04T06:10:52;51784.78;;;-145.83;85.01
7730;BME280;3908;52.310;7.230;2024-02-04T06:13:43;51718.25;;;-145.83;85.51
7730;BME280;3908;52.310;7.230;2024-02-04T06:16:31;51753.47;;;-145.83;85.31
7730;BME280;3908;52.310;7.230;2024-02-04T06:19:21;51753.47;;;-145.83;85.42
7730;BME280;3908;52.310;7.230;2024-02-04T06:22:10;51698.69;;;-145.83;85.93
7730;BME280;3908;52.310;7.230;2024-02-04T06:24:57;51739.78;;;-145.83;84.33
7730;BME280;3908;52.310;7.230;2024-02-04T06:27:44;51731.94;;;-145.83;83.90
7730;BME280;3908;52.310;7.230;2024-02-04T06:30:31;51728.03;;;-145.83;83.64
7730;BME280;3908;52.310;7.230;2024-02-04T06:33:18;51735.88;;;-145.83;83.17
7730;BME280;3908;52.310;7.230;2024-02-04T06:36:08;51733.91;;;-145.83;82.82
7730;BME280;3908;52.310;7.230;2024-02-04T06:38:57;51751.53;;;-145.83;82.58
7730;BME280;3908;52.310;7.230;2024-02-04T06:41:44;51751.53;;;-145.83;81.53
7730;BME280;3908;52.310;7.230;2024-02-04T06:44:31;51720.22;;;-145.83;80.40
7730;BME280;3908;52.310;7.230;2024-02-04T06:47:18;51728.03;;;-145.83;81.07
7730;BME280;3908;52.310;7.230;2024-02-04T06:50:07;51745.66;;;-145.83;80.19
7730;BME280;3908;52.310;7.230;2024-02-04T06:52:59;51771.09;;;-145.83;80.99
7730;BME280;3908;52.310;7.230;2024-02-04T06:55:48;51757.38;;;-145.83;80.06
7730;BME280;3908;52.310;7.230;2024-02-04T06:58:37;51706.53;;;-145.83;78.45
7730;BME280;3908;52.310;7.230;2024-02-04T07:01:24;51735.88;;;-145.83;79.60
7730;BME280;3908;52.310;7.230;2024-02-04T07:04:11;51724.13;;;-145.83;78.52
7730;BME280;3908;52.310;7.230;2024-02-04T07:06:58;51728.03;;;-145.83;77.14
7730;BME280;3908;52.310;7.230;2024-02-04T07:09:48;51730.00;;;-145.83;77.37
7730;BME280;3908;52.310;7.230;2024-02-04T07:12:36;51728.03;;;-145.83;77.59
7730;BME280;3908;52.310;7.230;2024-02-04T07:15:26;51773.03;;;-145.83;77.51
7730;BME280;3908;52.310;7.230;2024-02-04T07:18:13;51751.53;;;-145.83;78.00
7730;BME280;3908;52.310;7.230;2024-02-04T07:21:05;51702.59;;;-145.83;78.01
7730;BME280;3908;52.310;7.230;2024-02-04T07:23:52;51753.47;;;-145.83;77.56
7730;BME280;3908;52.310;7.230;2024-02-04T07:26:39;51702.59;;;-145.83;77.17
7730;BME280;3908;52.310;7.230;2024-02-04T07:29:31;51728.03;;;-145.83;77.19
7730;BME280;3908;52.310;7.230;2024-02-04T07:32:20;51733.91;;;-145.83;77.30
7730;BME280;3908;52.310;7.230;2024-02-04T07:35:09;51720.22;;;-145.83;77.11
7730;BME280;3908;52.310;7.230;2024-02-04T07:37:57;51726.09;;;-145.83;76.47
7730;BME280;3908;52.310;7.230;2024-02-04T07:40:44;51753.47;;;-145.83;77.04
7730;BME280;3908;52.310;7.230;2024-02-04T07:43:31;51726.09;;;-145.83;76.88
7730;BME280;3908;52.310;7.230;2024-02-04T07:46:19;51716.31;;;-145.83;77.85
7730;BME280;3908;52.310;7.230;2024-02-04T07:49:07;51720.22;;;-145.83;77.28
7730;BME280;3908;52.310;7.230;2024-02-04T07:51:54;51753.47;;;-145.83;77.25
7730;BME280;3908;52.310;7.230;2024-02-04T07:54:41;51710.44;;;-145.83;76.85
7730;BME280;3908;52.310;7.230;2024-02-04T07:57:28;51716.31;;;-145.83;77.09
7730;BME280;3908;52.310;7.230;2024-02-04T08:00:19;51718.25;;;-145.83;77.25
7730;BME280;3908;52.310;7.230;2024-02-04T08:03:08;51702.59;;;-145.83;76.26
7730;BME280;3908;52.310;7.230;2024-02-04T08:05:55;51743.69;;;-145.83;77.34
7730;BME280;3908;52.310;7.230;2024-02-04T08:08:42;51733.91;;;-145.83;77.52
7730;BME280;3908;52.310;7.230;2024-02-04T08:11:30;51739.78;;;-145.83;77.19
7730;BME280;3908;52.310;7.230;2024-02-04T08:14:20;51753.47;;;-145.83;78.04
7730;BME280;3908;52.310;7.230;2024-02-04T08:17:07;51724.13;;;-145.83;78.63
7730;BME280;3908;52.310;7.230;2024-02-04T08:19:59;51731.94;;;-145.83;77.83
7730;BME280;3908;52.310;7.230;2024-02-04T08:22:46;51747.59;;;-145.83;78.19
7730;BME280;3908;52.310;7.230;2024-02-04T08:25:33;51763.25;;;-145.83;77.68
7730;BME280;3908;52.310;7.230;2024-02-04T08:28:20;51737.81;;;-145.83;77.92
7730;BME280;3908;52.310;7.230;2024-02-04T08:31:12;51741.75;;;-145.83;78.36
7730;BME280;3908;52.310;7.230;2024-02-04T08:33:59;51712.38;;;-145.83;78.13
7730;BME280;3908;52.310;7.230;2024-02-04T08:36:48;51747.59;;;-145.83;78.11
7730;BME280;3908;52.310;7.230;2024-02-04T08:39:38;51743.69;;;-145.83;78.00
7730;BME280;3908;52.310;7.230;2024-02-04T08:42:26;51753.47;;;-145.83;77.94
7730;BME280;3908;52.310;7.230;2024-02-04T08:45:13;51767.16;;;-145.83;78.04
7730;BME280;3908;52.310;7.230;2024-02-04T08:48:00;51765.22;;;-145.83;77.63
7730;BME280;3908;52.310;7.230;2024-02-04T08:50:50;51730.00;;;-145.83;76.64
7730;BME280;3908;52.310;7.230;2024-02-04T08:53:43;51751.53;;;-145.83;76.68
7730;BME280;3908;52.310;7.230;2024-02-04T08:56:30;51720.22;;;-145.83;76.13
7730;BME280;3908;52.310;7.230;2024-02-04T08:59:18;51724.13;;;-145.83;75.40
7730;BME280;3908;52.310;7.230;2024-02-04T09:02:05;51745.66;;;-145.83;74.77
7730;BME280;3908;52.310;7.230;2024-02-04T09:04:52;51741.75;;;-145.83;74.37
7730;BME280;3908;52.310;7.230;2024-02-04T09:07:40;51775.00;;;-145.83;74.35
7730;BME280;3908;52.310;7.230;2024-02-04T09:10:32;51761.31;;;-145.83;74.24
7730;BME280;3908;52.310;7.230;2024-02-04T09:13:20;51728.03;;;-145.83;74.35
7730;BME280;3908;52.310;7.230;2024-02-04T09:16:12;51749.56;;;-145.83;73.52
7730;BME280;3908;52.310;7.230;2024-02-04T09:19:03;51718.25;;;-145.83;72.96
7730;BME280;3908;52.310;7.230;2024-02-04T09:21:51;51753.47;;;-145.83;72.19
7730;BME280;3908;52.310;7.230;2024-02-04T09:24:38;51708.47;;;-145.83;72.75
7730;BME280;3908;52.310;7.230;2024-02-04T09:27:27;51761.31;;;-145.83;73.09
7730;BME280;3908;52.310;7.230;2024-02-04T09:30:14;51722.16;;;-145.83;72.12
7730;BME280;3908;52.310;7.230;2024-02-04T09:33:01;51724.13;;;-145.83;71.86
7730;BME280;3908;52.310;7.230;2024-02-04T09:38:37;51782.81;;;-145.83;71.40
7730;BME280;3908;52.310;7.230;2024-02-04T09:41:25;51800.44;;;-145.83;71.56
7730;BME280;3908;52.310;7.230;2024-02-04T09:44:17;51794.56;;;-145.83;72.23
7730;BME280;3908;52.310;7.230;2024-02-04T09:47:05;51753.47;;;-145.83;71.96
7730;BME280;3908;52.310;7.230;2024-02-04T09:49:54;51776.94;;;-145.83;72.99
7730;BME280;3908;52.310;7.230;2024-02-04T09:52:47;51775.00;;;-145.83;72.92
7730;BME280;3908;52.310;7.230;2024-02-04T09:55:37;51745.66;;;-145.83;73.29
7730;BME280;3908;52.310;7.230;2024-02-04T09:58:28;51753.47;;;-145.83;73.66
7730;BME280;3908;52.310;7.230;2024-02-04T10:01:17;51771.09;;;-145.83;73.87
7730;BME280;3908;52.310;7.230;2024-02-04T10:04:04;51757.38;;;-145.83;74.33
7730;BME280;3908;52.310;7.230;2024-02-04T10:06:51;51767.16;;;-145.83;74.98
7730;BME280;3908;52.310;7.230;2024-02-04T10:09:40;51759.34;;;-145.83;74.80
7730;BME280;3908;52.310;7.230;2024-02-04T10:12:28;51759.34;;;-145.83;75.37
7730;BME280;3908;52.310;7.230;2024-02-04T10:15:17;51753.47;;;-145.83;76.26
7730;BME280;3908;52.310;7.230;2024-02-04T10:18:09;51718.25;;;-145.83;76.88
7730;BME280;3908;52.310;7.230;2024-02-04T10:20:56;51757.38;;;-145.83;77.03
7730;BME280;3908;52.310;7.230;2024-02-04T10:23:43;51755.44;;;-145.83;77.05
7730;BME280;3908;52.310;7.230;2024-02-04T10:26:30;51776.94;;;-145.83;77.33
7730;BME280;3908;52.310;7.230;2024-02-04T10:29:21;51755.44;;;-145.83;77.55
7730;BME280;3908;52.310;7.230;2024-02-04T10:32:08;51739.78;;;-145.83;77.44
7730;BME280;3908;52.310;7.230;2024-02-04T10:34:58;51763.25;;;-145.83;77.15
7730;BME280;3908;52.310;7.230;2024-02-04T10:37:47;51755.44;;;-145.83;77.24
7730;BME280;3908;52.310;7.230;2024-02-04T10:40:37;51739.78;;;-145.83;77.25
7730;BME280;3908;52.310;7.230;2024-02-04T10:43:24;51763.25;;;-145.83;77.39
7730;BME280;3908;52.310;7.230;2024-02-04T10:46:18;51753.47;;;-145.83;78.04
7730;BME280;3908;52.310;7.230;2024-02-04T10:49:08;51786.72;;;-145.83;78.75
7730;BME280;3908;52.310;7.230;2024-02-04T10:52:04;51778.91;;;-145.83;80.34
7730;BME280;3908;52.310;7.230;2024-02-04T10:54:56;51737.81;;;-145.83;81.50
7730;BME280;3908;52.310;7.230;2024-02-04T10:57:43;51755.44;;;-145.83;82.54
7730;BME280;3908;52.310;7.230;2024-02-04T11:00:32;51731.94;;;-145.83;83.54
7730;BME280;3908;52.310;7.230;2024-02-04T11:03:21;51759.34;;;-145.83;83.90
7730;BME280;3908;52.310;7.230;2024-02-04T11:06:13;51775.00;;;-145.83;84.35
7730;BME280;3908;52.310;7.230;2024-02-04T11:09:02;51726.09;;;-145.83;83.74
7730;BME280;3908;52.310;7.230;2024-02-04T11:11:51;51755.44;;;-145.83;83.73
7730;BME280;3908;52.310;7.230;2024-02-04T11:14:44;51765.22;;;-145.83;83.12
7730;BME280;3908;52.310;7.230;2024-02-04T11:17:58;51780.88;;;-145.83;83.43
7730;BME280;3908;52.310;7.230;2024-02-04T11:21:17;51763.25;;;-145.83;82.89
7730;BME280;3908;52.310;7.230;2024-02-04T11:24:19;51733.91;;;-145.83;83.62
7730;BME280;3908;52.310;7.230;2024-02-04T11:27:09;51761.31;;;-145.83;83.47
7730;BME280;3908;52.310;7.230;2024-02-04T11:29:56;51751.53;;;-145.83;83.20
7730;BME280;3908;52.310;7.230;2024-02-04T11:32:44;51769.13;;;-145.83;83.46
7730;BME280;3908;52.310;7.230;2024-02-04T11:35:33;51780.88;;;-145.83;83.41
7730;BME280;3908;52.310;7.230;2024-02-04T11:38:29;51778.91;;;-145.83;83.46
7730;BME280;3908;52.310;7.230;2024-02-04T11:41:23;51802.38;;;-145.83;83.44
7730;BME280;3908;52.310;7.230;2024-02-04T11:44:20;51761.31;;;-145.83;83.66
7730;BME280;3908;52.310;7.230;2024-02-04T11:47:07;51745.66;;;-145.83;84.08
7730;BME280;3908;52.310;7.230;2024-02-04T11:49:55;51745.66;;;-145.83;84.56
7730;BME280;3908;52.310;7.230;2024-02-04T11:52:42;51757.38;;;-145.83;84.58
7730;BME280;3908;52.310;7.230;2024-02-04T11:55:29;51722.16;;;-145.83;83.76
7730;BME280;3908;52.310;7.230;2024-02-04T11:58:22;51753.47;;;-145.83;83.42
7730;BME280;3908;52.310;7.230;2024-02-04T12:01:10;51759.34;;;-145.83;83.77
7730;BME280;3908;52.310;7.230;2024-02-04T12:03:57;51767.16;;;-145.83;84.11
7730;BME280;3908;52.310;7.230;2024-02-04T12:06:44;51776.94;;;-145.83;83.56
7730;BME280;3908;52.310;7.230;2024-02-04T12:09:35;51731.94;;;-145.83;83.33
7730;BME280;3908;52.310;7.230;2024-02-04T12:12:22;51775.00;;;-145.83;82.60
7730;BME280;3908;52.310;7.230;2024-02-04T12:15:14;51728.03;;;-145.83;82.16
7730;BME280;3908;52.310;7.230;2024-02-04T12:20:37;51759.34;;;-145.83;77.89
7730;BME280;3908;52.310;7.230;2024-02-04T12:23:25;51818.03;;;-145.83;75.99
7730;BME280;3908;52.310;7.230;2024-02-04T12:26:14;51753.47;;;-145.83;74.92
7730;BME280;3908;52.310;7.230;2024-02-04T12:29:01;51745.66;;;-145.83;73.18
7730;BME280;3908;52.310;7.230;2024-02-04T12:31:57;51724.13;;;-145.83;72.42
7730;BME280;3908;52.310;7.230;2024-02-04T12:34:47;51755.44;;;-145.83;71.30
7730;BME280;3908;52.310;7.230;2024-02-04T12:37:49;51751.53;;;-145.83;70.90
7730;BME280;3908;52.310;7.230;2024-02-04T12:40:39;51776.94;;;-145.83;70.50
7730;BME280;3908;52.310;7.230;2024-02-04T12:43:27;51767.16;;;-145.83;69.71
7730;BME280;3908;52.310;7.230;2024-02-04T12:46:14;51739.78;;;-145.83;69.06
7730;BME280;3908;52.310;7.230;2024-02-04T12:49:03;51759.34;;;-145.83;69.05
7730;BME280;3908;52.310;7.230;2024-02-04T12:51:50;51759.34;;;-145.83;68.17
7730;BME280;3908;52.310;7.230;2024-02-04T12:54:42;51778.91;;;-145.83;68.54
7730;BME280;3908;52.310;7.230;2024-02-04T12:57:29;51761.31;;;-145.83;69.21
7730;BME280;3908;52.310;7.230;2024-02-04T13:00:18;51784.78;;;-145.83;69.20
7730;BME280;3908;52.310;7.230;2024-02-04T13:03:07;51759.34;;;-145.83;69.63
7730;BME280;3908;52.310;7.230;2024-02-04T13:05:58;51765.22;;;-145.83;70.25
7730;BME280;3908;52.310;7.230;2024-02-04T13:08:45;51731.94;;;-145.83;70.69
7730;BME280;3908;52.310;7.230;2024-02-04T13:11:33;51784.78;;;-145.83;70.44
7730;BME280;3908;52.310;7.230;2024-02-04T13:14:23;51747.59;;;-145.83;70.21
7730;BME280;3908;52.310;7.230;2024-02-04T13:17:10;51730.00;;;-145.83;70.00
7730;BME280;3908;52.310;7.230;2024-02-04T13:20:00;51745.66;;;-145.83;70.40
7730;BME280;3908;52.310;7.230;2024-02-04T13:22:51;51751.53;;;-145.83;70.07
7730;BME280;3908;52.310;7.230;2024-02-04T13:25:39;51757.38;;;-145.83;70.32
7730;BME280;3908;52.310;7.230;2024-02-04T13:28:26;51755.44;;;-145.83;70.91
7730;BME280;3908;52.310;7.230;2024-02-04T13:31:13;51782.81;;;-145.83;71.21
7730;BME280;3908;52.310;7.230;2024-02-04T13:34:03;51763.25;;;-145.83;71.61
7730;BME280;3908;52.310;7.230;2024-02-04T13:36:50;51769.13;;;-145.83;71.84
7730;BME280;3908;52.310;7.230;2024-02-04T13:39:45;51757.38;;;-145.83;72.33
7730;BME280;3908;52.310;7.230;2024-02-04T13:42:32;51775.00;;;-145.83;72.68
7730;BME280;3908;52.310;7.230;2024-02-04T13:45:20;51778.91;;;-145.83;72.74
7730;BME280;3908;52.310;7.230;2024-02-04T13:48:08;51755.44;;;-145.83;72.91
7730;BME280;3908;52.310;7.230;2024-02-04T13:50:58;51757.38;;;-145.83;73.63
7730;BME280;3908;52.310;7.230;2024-02-04T13:53:45;51763.25;;;-145.83;74.24
7730;BME280;3908;52.310;7.230;2024-02-04T13:56:34;51773.03;;;-145.83;74.45
7730;BME280;3908;52.310;7.230;2024-02-04T13:59:24;51747.59;;;-145.83;74.59
7730;BME280;3908;52.310;7.230;2024-02-04T14:02:11;51747.59;;;-145.83;74.52
7730;BME280;3908;52.310;7.230;2024-02-04T14:05:01;51745.66;;;-145.83;75.22
7730;BME280;3908;52.310;7.230;2024-02-04T14:07:48;51749.56;;;-145.83;75.59
7730;BME280;3908;52.310;7.230;2024-02-04T14:10:39;51765.22;;;-145.83;75.95
7730;BME280;3908;52.310;7.230;2024-02-04T14:13:30;51767.16;;;-145.83;76.10
7730;BME280;3908;52.310;7.230;2024-02-04T14:16:18;51755.44;;;-145.83;76.44
7730;BME280;3908;52.310;7.230;2024-02-04T14:19:05;51761.31;;;-145.83;77.44
7730;BME280;3908;52.310;7.230;2024-02-04T14:21:52;51796.53;;;-145.83;78.77
7730;BME280;3908;52.310;7.230;2024-02-04T14:24:40;51757.38;;;-145.83;80.48
7730;BME280;3908;52.310;7.230;2024-02-04T14:27:27;51784.78;;;-145.83;82.65
7730;BME280;3908;52.310;7.230;2024-02-04T14:30:16;51806.31;;;-145.83;85.12
7730;BME280;3908;52.310;7.230;2024-02-04T14:33:04;51763.25;;;-145.83;87.27
7730;BME280;3908;52.310;7.230;2024-02-04T14:35:51;51761.31;;;-145.83;88.66
7730;BME280;3908;52.310;7.230;2024-02-04T14:38:38;51816.09;;;-145.83;89.35
7730;BME280;3908;52.310;7.230;2024-02-04T14:41:26;51761.31;;;-145.83;89.78
7730;BME280;3908;52.310;7.230;2024-02-04T14:44:13;51784.78;;;-145.83;91.29
7730;BME280;3908;52.310;7.230;2024-02-04T14:47:02;51749.56;;;-145.83;91.03
7730;BME280;3908;52.310;7.230;2024-02-04T14:49:49;51776.94;;;-145.83;91.76
7730;BME280;3908;52.310;7.230;2024-02-04T14:52:36;51757.38;;;-145.83;92.36
7730;BME280;3908;52.310;7.230;2024-02-04T14:55:23;51786.72;;;-145.83;93.06